Time;durP1;ratioP1;P1;durP2;ratioP2;P2;SDS_P1;SDS_P2;PMS_P1;PMS_P2;Temp;Humidity;BMP_temperature;BMP_pressure;BME280_temperature;BME280_humidity;BME280_pressure;Samples;Min_cycle;Max_cycle;Signal;HPM_P1;HPM_P2
2024/03/07 00:00:18;;;;;;;28.70;25.38;;;4.80;91.50;;;;;;5052657;28;20033;-76
2024/03/07 00:02:48;;;;;;;33.55;27.27;;;4.70;91.50;;;;;;5047716;28;20021;-75
2024/03/07 00:05:15;;;;;;;35.67;26.90;;;4.70;91.40;;;;;;5048132;28;20036;-76
2024/03/07 00:07:41;;;;;;;32.78;26.67;;;4.60;91.50;;;;;;5048515;28;20040;-77
2024/03/07 00:10:08;;;;;;;32.72;26.58;;;4.60;91.50;;;;;;5055625;28;20052;-75
2024/03/07 00:12:40;;;;;;;34.00;27.48;;;4.60;91.50;;;;;;5055169;28;20629;-76
2024/03/07 00:15:08;;;;;;;33.60;25.70;;;4.60;91.60;;;;;;5053996;28;20086;-77
2024/03/07 00:17:35;;;;;;;37.03;27.17;;;4.50;91.70;;;;;;5058202;28;20236;-76
2024/03/07 00:20:01;;;;;;;38.55;29.52;;;4.60;91.70;;;;;;5051526;28;20052;-75
2024/03/07 00:22:29;;;;;;;35.85;29.30;;;4.50;91.80;;;;;;5053956;28;20099;-76
2024/03/07 00:24:56;;;;;;;34.58;28.58;;;4.50;92.00;;;;;;5051811;28;20082;-76
2024/03/07 00:27:22;;;;;;;34.58;28.55;;;4.50;92.10;;;;;;5054749;28;20147;-74
2024/03/07 00:29:52;;;;;;;36.90;28.40;;;4.40;92.20;;;;;;5053264;28;20040;-76
2024/03/07 00:32:22;;;;;;;34.65;27.95;;;4.40;92.30;;;;;;5056494;28;20060;-77
2024/03/07 00:34:48;;;;;;;37.92;28.25;;;4.50;92.40;;;;;;5051284;28;20319;-75
2024/03/07 00:37:15;;;;;;;34.40;27.85;;;4.50;92.50;;;;;;5057451;28;20097;-78
2024/03/07 00:39:41;;;;;;;34.90;28.35;;;4.50;92.50;;;;;;5050351;28;20029;-75
2024/03/07 00:42:07;;;;;;;33.72;27.05;;;4.50;92.60;;;;;;5049510;28;21386;-75
2024/03/07 00:44:34;;;;;;;38.40;29.02;;;4.60;92.60;;;;;;5053356;28;20055;-76
2024/03/07 00:47:00;;;;;;;37.38;28.45;;;4.50;92.60;;;;;;5059371;28;20044;-76
2024/03/07 00:49:25;;;;;;;38.53;28.73;;;4.50;92.70;;;;;;5052399;28;20025;-78
2024/03/07 00:51:51;;;;;;;45.78;33.40;;;4.50;92.80;;;;;;5055874;28;20029;-77
2024/03/07 00:54:17;;;;;;;48.00;34.13;;;4.50;92.90;;;;;;5057190;28;20028;-77
2024/03/07 00:56:43;;;;;;;50.38;36.45;;;4.50;93.00;;;;;;5055926;28;20067;-74
2024/03/07 00:59:08;;;;;;;46.45;33.85;;;4.50;93.20;;;;;;5045973;28;20033;-76
2024/03/07 01:01:36;;;;;;;41.92;31.85;;;4.60;93.40;;;;;;5059351;28;20032;-77
2024/03/07 01:04:02;;;;;;;47.30;33.42;;;4.60;93.40;;;;;;5051941;28;20394;-75
2024/03/07 01:06:28;;;;;;;46.70;33.63;;;4.60;93.40;;;;;;5053992;28;20048;-77
2024/03/07 01:08:54;;;;;;;54.38;38.25;;;4.50;93.40;;;;;;5058870;28;20292;-74
2024/03/07 01:11:19;;;;;;;63.00;43.00;;;4.60;93.80;;;;;;5051921;28;20097;-77
2024/03/07 01:13:45;;;;;;;66.03;41.55;;;4.70;94.50;;;;;;5057490;28;20017;-77
2024/03/07 01:16:11;;;;;;;64.25;41.92;;;4.70;94.90;;;;;;5051835;28;20047;-76
2024/03/07 01:18:38;;;;;;;65.95;44.78;;;4.70;95.30;;;;;;5055504;28;20878;-76
2024/03/07 01:21:04;;;;;;;59.88;42.60;;;4.80;95.40;;;;;;5051471;28;20021;-77
2024/03/07 01:23:31;;;;;;;65.72;44.13;;;4.70;95.60;;;;;;5052553;28;20560;-77
2024/03/07 01:25:58;;;;;;;64.38;42.50;;;4.70;95.70;;;;;;5048487;28;20426;-77
2024/03/07 01:28:24;;;;;;;62.40;44.58;;;4.80;95.90;;;;;;5053647;28;20207;-74
2024/03/07 01:30:52;;;;;;;67.53;44.65;;;4.90;95.80;;;;;;5049865;28;20539;-77
2024/03/07 01:33:19;;;;;;;66.10;43.65;;;4.90;95.90;;;;;;5056459;28;20051;-74
2024/03/07 01:35:45;;;;;;;61.95;42.25;;;4.80;95.80;;;;;;5055431;28;20056;-76
2024/03/07 01:38:13;;;;;;;62.63;43.80;;;4.90;95.70;;;;;;5056614;28;20284;-79
2024/03/07 01:40:43;;;;;;;62.88;43.92;;;4.80;95.70;;;;;;5051393;28;20032;-78
2024/03/07 01:43:10;;;;;;;59.92;41.17;;;4.80;95.60;;;;;;5055433;28;20044;-72
2024/03/07 01:45:37;;;;;;;63.47;43.20;;;4.80;95.50;;;;;;5057530;28;20031;-79
2024/03/07 01:48:08;;;;;;;65.30;44.30;;;4.80;95.40;;;;;;5051554;28;20028;-78
2024/03/07 01:50:38;;;;;;;61.67;42.63;;;4.70;95.40;;;;;;5053086;28;20119;-74
2024/03/07 01:53:06;;;;;;;65.45;43.88;;;4.70;95.50;;;;;;5049497;28;20032;-74
2024/03/07 01:55:32;;;;;;;66.53;44.08;;;4.70;95.50;;;;;;5057833;28;20037;-75
2024/03/07 01:58:00;;;;;;;63.70;43.63;;;4.70;95.50;;;;;;5055997;28;20416;-73
2024/03/07 02:00:25;;;;;;;61.38;43.47;;;4.70;95.50;;;;;;5059592;28;20111;-74
2024/03/07 02:02:53;;;;;;;68.03;44.88;;;4.70;95.40;;;;;;5055367;28;20509;-78
2024/03/07 02:05:19;;;;;;;67.38;45.47;;;4.70;95.40;;;;;;5056286;28;20265;-76
2024/03/07 02:07:45;;;;;;;69.32;44.97;;;4.60;95.30;;;;;;5053414;28;20107;-74
2024/03/07 02:10:11;;;;;;;69.53;46.28;;;4.70;95.30;;;;;;5055134;28;20394;-77
2024/03/07 02:12:36;;;;;;;75.72;45.17;;;4.60;95.20;;;;;;5057411;28;20170;-76
2024/03/07 02:15:02;;;;;;;73.18;45.55;;;4.70;95.30;;;;;;5052604;28;20370;-76
2024/03/07 02:17:28;;;;;;;67.45;46.45;;;4.70;95.20;;;;;;5056877;28;20032;-75
2024/03/07 02:19:54;;;;;;;74.50;46.72;;;4.70;95.20;;;;;;5054110;28;20037;-74
2024/03/07 02:22:20;;;;;;;70.30;46.53;;;4.70;95.20;;;;;;5054462;28;20380;-78
2024/03/07 02:24:46;;;;;;;73.80;46.80;;;4.70;95.20;;;;;;5054290;28;20323;-77
2024/03/07 02:27:14;;;;;;;68.10;46.92;;;4.70;95.20;;;;;;5047186;28;20037;-76
2024/03/07 02:29:40;;;;;;;70.93;48.60;;;4.70;95.10;;;;;;5048612;28;20041;-76
2024/03/07 02:32:06;;;;;;;75.78;49.05;;;4.70;95.00;;;;;;5047044;28;20771;-77
2024/03/07 02:34:32;;;;;;;73.05;48.80;;;4.80;95.00;;;;;;5047599;28;20025;-74
2024/03/07 02:36:57;;;;;;;76.72;50.10;;;4.70;95.00;;;;;;5051828;28;20032;-77
2024/03/07 02:39:24;;;;;;;80.47;51.10;;;4.70;95.00;;;;;;5046358;28;20024;-76
2024/03/07 02:41:50;;;;;;;78.75;50.05;;;4.70;95.10;;;;;;5044872;28;20032;-78
2024/03/07 02:44:16;;;;;;;81.18;52.00;;;4.70;95.20;;;;;;5056146;28;20122;-77
2024/03/07 02:46:42;;;;;;;83.22;51.83;;;4.70;95.20;;;;;;5048790;28;20230;-76
2024/03/07 02:49:09;;;;;;;79.00;51.13;;;4.70;95.20;;;;;;5051402;28;20491;-78
2024/03/07 02:51:35;;;;;;;84.30;52.83;;;4.70;95.30;;;;;;5050855;28;20086;-77
2024/03/07 02:54:01;;;;;;;85.35;54.25;;;4.70;95.30;;;;;;5051374;28;20021;-72
2024/03/07 02:56:26;;;;;;;86.55;54.08;;;4.70;95.40;;;;;;5044975;28;20041;-77
2024/03/07 02:58:52;;;;;;;84.82;53.97;;;4.80;95.40;;;;;;5049070;28;20059;-76
2024/03/07 03:01:18;;;;;;;84.80;52.72;;;4.70;95.40;;;;;;5056945;28;20025;-76
2024/03/07 03:03:44;;;;;;;82.63;51.95;;;4.80;95.50;;;;;;5051205;28;20025;-76
2024/03/07 03:06:10;;;;;;;89.88;55.15;;;4.70;95.40;;;;;;5044856;28;20250;-77
2024/03/07 03:08:36;;;;;;;86.57;55.45;;;4.70;95.50;;;;;;5045737;28;20576;-77
2024/03/07 03:11:03;;;;;;;88.78;54.80;;;4.70;95.60;;;;;;5045392;28;20304;-76
2024/03/07 03:13:29;;;;;;;93.47;55.75;;;4.70;95.60;;;;;;5054386;28;20032;-78
2024/03/07 03:15:55;;;;;;;89.72;55.38;;;4.70;95.60;;;;;;5042696;28;20032;-78
2024/03/07 03:18:22;;;;;;;89.28;55.15;;;4.70;95.70;;;;;;5056610;28;20528;-76
2024/03/07 03:20:48;;;;;;;93.40;57.08;;;4.70;95.70;;;;;;5048428;28;20382;-77
2024/03/07 03:23:14;;;;;;;92.30;58.20;;;4.60;95.70;;;;;;5051478;28;20095;-76
2024/03/07 03:25:41;;;;;;;91.47;55.45;;;4.60;95.70;;;;;;5046347;28;20021;-76
2024/03/07 03:28:09;;;;;;;95.68;59.00;;;4.60;95.80;;;;;;5047192;28;20107;-78
2024/03/07 03:30:38;;;;;;;97.85;56.35;;;4.60;95.80;;;;;;5048267;28;20033;-78
2024/03/07 03:33:08;;;;;;;95.88;58.10;;;4.60;95.80;;;;;;5051039;28;20435;-72
2024/03/07 03:35:34;;;;;;;91.85;55.72;;;4.60;95.80;;;;;;5051229;28;20032;-77
2024/03/07 03:38:00;;;;;;;100.22;58.35;;;4.60;95.80;;;;;;5049230;28;20476;-75
2024/03/07 03:40:26;;;;;;;98.13;57.55;;;4.60;95.90;;;;;;5055814;28;20158;-76
2024/03/07 03:42:52;;;;;;;99.32;62.03;;;4.60;95.80;;;;;;5047698;28;20052;-77
2024/03/07 03:45:18;;;;;;;99.20;60.60;;;4.50;96.00;;;;;;5052775;28;20569;-75
2024/03/07 03:47:44;;;;;;;103.88;59.30;;;4.60;96.00;;;;;;5057168;28;20078;-76
2024/03/07 03:50:11;;;;;;;97.85;60.05;;;4.60;96.10;;;;;;5054008;28;20275;-78
2024/03/07 03:52:37;;;;;;;97.60;59.97;;;4.60;96.10;;;;;;5057599;28;20115;-77
2024/03/07 03:55:05;;;;;;;100.28;58.80;;;4.50;96.10;;;;;;5056287;28;20068;-77
2024/03/07 03:57:32;;;;;;;102.05;60.53;;;4.50;96.20;;;;;;5052101;28;20066;-78
2024/03/07 03:59:58;;;;;;;104.85;60.53;;;4.50;96.30;;;;;;5060431;28;20306;-78
2024/03/07 04:02:24;;;;;;;101.00;59.65;;;4.50;96.40;;;;;;5051912;28;20081;-78
2024/03/07 04:04:51;;;;;;;109.53;64.38;;;4.50;96.40;;;;;;5052514;28;20501;-78
2024/03/07 04:07:18;;;;;;;107.38;63.22;;;4.50;96.40;;;;;;5053868;28;20052;-78
2024/03/07 04:09:45;;;;;;;111.25;64.70;;;4.50;96.40;;;;;;5058896;28;20079;-78
2024/03/07 04:12:10;;;;;;;108.50;64.72;;;4.50;96.40;;;;;;5052840;28;20040;-77
2024/03/07 04:14:40;;;;;;;108.60;63.83;;;4.40;96.50;;;;;;5051512;28;20316;-77
2024/03/07 04:17:07;;;;;;;103.00;62.97;;;4.40;96.50;;;;;;5049138;28;20060;-76
2024/03/07 04:19:35;;;;;;;108.10;63.05;;;4.40;96.60;;;;;;5054904;28;20021;-78
2024/03/07 04:22:04;;;;;;;109.55;62.17;;;4.40;96.60;;;;;;5053937;28;20042;-76
2024/03/07 04:24:34;;;;;;;116.03;65.35;;;4.50;96.60;;;;;;5057018;28;20349;-76
2024/03/07 04:27:00;;;;;;;114.45;66.15;;;4.40;96.60;;;;;;5056815;28;20071;-77
2024/03/07 04:29:27;;;;;;;114.95;66.75;;;4.40;96.70;;;;;;5057202;28;20362;-78
2024/03/07 04:31:53;;;;;;;108.15;64.53;;;4.40;96.70;;;;;;5054261;28;20036;-77
2024/03/07 04:34:18;;;;;;;112.45;63.70;;;4.40;96.80;;;;;;5054037;28;20055;-76
2024/03/07 04:36:44;;;;;;;113.60;65.43;;;4.40;96.80;;;;;;5055789;28;20024;-76
2024/03/07 04:39:32;;;;;;;111.28;64.75;;;4.40;96.90;;;;;;5051452;28;20017;-76
2024/03/07 04:42:02;;;;;;;115.57;66.82;;;4.40;96.90;;;;;;5054763;28;20075;-75
2024/03/07 04:44:30;;;;;;;113.78;65.93;;;4.30;96.90;;;;;;5053233;28;20085;-75
2024/03/07 04:46:57;;;;;;;121.88;68.90;;;4.40;97.00;;;;;;5051387;28;20060;-77
2024/03/07 04:49:24;;;;;;;120.65;68.32;;;4.40;97.10;;;;;;5054276;28;20134;-75
2024/03/07 04:51:54;;;;;;;121.20;67.22;;;4.40;97.10;;;;;;5054182;28;20040;-78
2024/03/07 04:54:21;;;;;;;125.90;69.65;;;4.40;97.10;;;;;;5047923;28;20032;-76
2024/03/07 04:56:48;;;;;;;126.93;67.57;;;4.30;97.10;;;;;;5051678;28;20484;-76
2024/03/07 04:59:15;;;;;;;119.85;69.47;;;4.40;97.20;;;;;;5054249;28;20503;-77
2024/03/07 05:01:40;;;;;;;119.95;68.80;;;4.30;97.10;;;;;;5055513;28;20388;-77
2024/03/07 05:04:07;;;;;;;127.93;69.65;;;4.30;97.20;;;;;;5051331;28;20013;-76
2024/03/07 05:06:35;;;;;;;130.40;71.50;;;4.20;97.20;;;;;;5054397;28;20040;-78
2024/03/07 05:09:03;;;;;;;122.38;68.28;;;4.20;97.20;;;;;;5053042;28;20123;-78
2024/03/07 05:11:31;;;;;;;122.63;69.88;;;4.20;97.20;;;;;;5056716;28;20332;-76
2024/03/07 05:13:58;;;;;;;121.45;67.90;;;4.20;97.30;;;;;;5053104;28;20043;-75
2024/03/07 05:16:31;;;;;;;120.47;67.25;;;4.20;97.30;;;;;;5052510;28;20042;-77
2024/03/07 05:19:00;;;;;;;120.38;68.30;;;4.10;97.30;;;;;;5053002;28;20021;-77
2024/03/07 05:23:59;;;;;;;118.78;63.47;;;4.10;97.30;;;;;;5046795;28;20037;-76
2024/03/07 05:26:29;;;;;;;119.00;67.80;;;4.10;97.30;;;;;;5055566;28;20028;-78
2024/03/07 05:28:55;;;;;;;124.95;65.85;;;4.10;97.30;;;;;;5054306;28;20043;-76
2024/03/07 05:31:21;;;;;;;121.10;67.03;;;4.00;97.40;;;;;;5046316;28;20033;-77
2024/03/07 05:33:47;;;;;;;120.45;66.95;;;4.00;97.40;;;;;;5051373;28;20126;-77
2024/03/07 05:36:16;;;;;;;117.18;67.75;;;4.00;97.40;;;;;;5054423;28;20032;-78
2024/03/07 05:38:45;;;;;;;116.70;68.65;;;4.00;97.50;;;;;;5058546;28;20020;-78
2024/03/07 05:41:12;;;;;;;123.85;67.45;;;4.00;97.50;;;;;;5071209;28;20025;-77
2024/03/07 05:43:38;;;;;;;118.07;67.22;;;4.10;97.60;;;;;;5062764;28;20036;-76
2024/03/07 05:46:06;;;;;;;121.72;67.00;;;4.00;97.60;;;;;;5052023;28;20032;-75
2024/03/07 05:48:33;;;;;;;126.20;70.47;;;4.00;97.60;;;;;;5051869;28;20036;-74
2024/03/07 05:50:59;;;;;;;125.60;68.18;;;4.10;97.60;;;;;;5053653;28;20044;-77
2024/03/07 05:53:25;;;;;;;132.65;69.32;;;4.10;97.70;;;;;;5049113;28;20024;-76
2024/03/07 05:55:51;;;;;;;124.15;67.80;;;4.10;97.70;;;;;;5049223;28;20056;-78
2024/03/07 05:58:17;;;;;;;130.80;69.55;;;4.10;97.70;;;;;;5054177;28;20067;-75
2024/03/07 06:00:49;;;;;;;133.25;69.20;;;4.10;97.70;;;;;;5052100;28;20074;-77
2024/03/07 06:03:19;;;;;;;128.30;68.45;;;4.00;97.70;;;;;;5052177;28;20032;-78
2024/03/07 06:05:49;;;;;;;133.27;68.45;;;4.10;97.70;;;;;;5049712;28;20036;-75
2024/03/07 06:08:18;;;;;;;123.68;68.88;;;4.00;97.70;;;;;;5048739;28;20599;-76
2024/03/07 06:10:45;;;;;;;134.95;70.25;;;4.10;97.70;;;;;;5047188;28;20051;-77
2024/03/07 06:13:11;;;;;;;134.57;71.65;;;4.10;97.80;;;;;;5052399;28;20070;-77
2024/03/07 06:15:40;;;;;;;138.43;71.80;;;4.10;97.80;;;;;;5049523;28;20020;-78
2024/03/07 06:18:08;;;;;;;137.98;73.57;;;4.10;97.90;;;;;;5047845;28;20020;-75
2024/03/07 06:20:35;;;;;;;139.57;75.97;;;4.10;97.90;;;;;;5050062;28;20028;-77
2024/03/07 06:23:05;;;;;;;142.90;76.10;;;4.10;97.90;;;;;;5054084;28;20028;-77
2024/03/07 06:25:36;;;;;;;141.90;70.90;;;4.10;97.90;;;;;;5048293;28;20590;-74
2024/03/07 06:28:09;;;;;;;145.82;75.45;;;4.10;98.00;;;;;;5049912;28;20437;-74
2024/03/07 06:30:43;;;;;;;150.18;77.43;;;4.10;98.00;;;;;;5046837;28;20044;-77
2024/03/07 06:33:12;;;;;;;153.30;78.03;;;4.10;98.00;;;;;;5053264;28;20131;-78
2024/03/07 06:35:38;;;;;;;141.40;74.95;;;4.10;98.00;;;;;;5050239;28;20282;-76
2024/03/07 06:38:09;;;;;;;137.80;71.57;;;4.10;98.00;;;;;;5046708;28;20499;-77
2024/03/07 06:40:36;;;;;;;142.82;74.60;;;4.20;98.00;;;;;;5045854;28;20039;-77
2024/03/07 06:43:06;;;;;;;150.27;75.70;;;4.10;98.00;;;;;;5044127;28;20047;-77
2024/03/07 06:45:33;;;;;;;143.88;74.38;;;4.10;98.00;;;;;;5050899;28;20515;-76
2024/03/07 06:48:00;;;;;;;150.63;76.45;;;4.10;98.00;;;;;;5054405;28;20237;-76
2024/03/07 06:50:28;;;;;;;144.25;75.57;;;4.20;98.00;;;;;;5052319;28;20360;-75
2024/03/07 06:52:54;;;;;;;142.35;74.70;;;4.20;98.10;;;;;;5051013;28;20021;-75
2024/03/07 06:55:20;;;;;;;149.00;75.13;;;4.20;98.10;;;;;;5050446;28;20461;-75
2024/03/07 06:57:46;;;;;;;144.52;71.45;;;4.30;98.00;;;;;;5049091;28;20217;-74
2024/03/07 07:00:14;;;;;;;136.75;70.63;;;4.30;98.00;;;;;;5050233;28;20032;-75
2024/03/07 07:02:40;;;;;;;149.23;72.22;;;4.30;98.10;;;;;;5046596;28;20035;-74
2024/03/07 07:05:10;;;;;;;139.40;73.28;;;4.40;98.10;;;;;;5053211;28;20025;-75
2024/03/07 07:07:41;;;;;;;145.40;72.45;;;4.50;98.10;;;;;;5049098;28;20032;-74
2024/03/07 07:10:09;;;;;;;141.38;71.63;;;4.60;98.10;;;;;;5054619;28;20448;-74
2024/03/07 07:12:38;;;;;;;143.40;74.13;;;4.60;98.10;;;;;;5052402;28;20388;-75
2024/03/07 07:15:04;;;;;;;145.32;74.03;;;4.80;98.10;;;;;;5053208;28;20095;-74
2024/03/07 07:17:30;;;;;;;148.05;74.65;;;4.80;98.10;;;;;;5053658;28;20055;-74
2024/03/07 07:19:57;;;;;;;150.48;74.80;;;4.90;98.10;;;;;;5054491;28;20157;-75
2024/03/07 07:22:23;;;;;;;150.93;74.90;;;4.90;98.00;;;;;;5054103;28;20023;-74
2024/03/07 07:24:49;;;;;;;152.13;75.95;;;5.00;97.90;;;;;;5053227;28;20063;-74
2024/03/07 07:27:15;;;;;;;154.80;76.95;;;5.00;97.80;;;;;;5053258;28;20447;-74
2024/03/07 07:29:41;;;;;;;161.20;77.65;;;5.00;97.80;;;;;;5045132;28;20108;-74
2024/03/07 07:32:07;;;;;;;147.25;75.57;;;5.10;97.70;;;;;;5057502;28;20516;-74
2024/03/07 07:34:33;;;;;;;154.35;73.47;;;5.20;97.60;;;;;;5046982;28;20246;-74
2024/03/07 07:36:59;;;;;;;147.40;74.28;;;5.10;97.50;;;;;;5053821;28;20078;-75
2024/03/07 07:39:24;;;;;;;160.05;76.10;;;5.20;97.50;;;;;;5041664;28;20064;-75
2024/03/07 07:41:50;;;;;;;155.40;74.53;;;5.20;97.40;;;;;;5055147;28;20455;-74
2024/03/07 07:44:16;;;;;;;159.48;75.88;;;5.30;97.30;;;;;;5048890;28;20353;-75
2024/03/07 07:46:41;;;;;;;151.25;74.43;;;5.30;97.30;;;;;;5056290;28;20478;-75
2024/03/07 07:49:07;;;;;;;157.00;76.07;;;5.40;97.20;;;;;;5049180;28;20082;-76
2024/03/07 07:51:33;;;;;;;153.73;74.43;;;5.40;97.10;;;;;;5053384;28;20488;-73
2024/03/07 07:53:59;;;;;;;149.18;69.65;;;5.50;97.10;;;;;;5054581;28;20029;-76
2024/03/07 07:56:24;;;;;;;155.88;74.05;;;5.50;97.00;;;;;;5055320;28;20052;-74
2024/03/07 07:58:51;;;;;;;149.60;73.45;;;5.50;96.90;;;;;;5051794;28;20017;-75
2024/03/07 08:01:17;;;;;;;145.60;71.00;;;5.60;96.90;;;;;;5053091;28;20029;-75
2024/03/07 08:03:44;;;;;;;147.27;74.45;;;5.60;96.90;;;;;;5053697;28;20046;-76
2024/03/07 08:06:09;;;;;;;142.25;71.43;;;5.70;96.90;;;;;;5052525;28;20119;-75
2024/03/07 08:08:35;;;;;;;146.05;74.05;;;5.80;96.90;;;;;;5054736;28;20017;-76
2024/03/07 08:11:01;;;;;;;142.75;71.07;;;5.90;96.90;;;;;;5049430;28;20029;-76
2024/03/07 08:13:27;;;;;;;139.80;71.72;;;5.90;96.70;;;;;;5053266;28;20445;-75
2024/03/07 08:15:56;;;;;;;147.45;70.43;;;6.00;96.50;;;;;;5051192;28;20035;-75
2024/03/07 08:18:21;;;;;;;132.98;67.47;;;6.10;96.50;;;;;;5049021;28;20021;-75
2024/03/07 08:20:47;;;;;;;135.05;69.10;;;6.10;96.20;;;;;;5054115;28;20017;-76
2024/03/07 08:23:13;;;;;;;134.25;69.10;;;6.20;96.40;;;;;;5053497;28;20027;-75
2024/03/07 08:25:40;;;;;;;126.72;66.43;;;6.20;96.10;;;;;;5050663;28;20024;-75
2024/03/07 08:28:06;;;;;;;124.45;64.00;;;6.40;96.00;;;;;;5053708;28;20500;-75
2024/03/07 08:30:32;;;;;;;121.72;65.25;;;6.50;95.80;;;;;;5045060;28;20036;-75
2024/03/07 08:33:04;;;;;;;124.85;66.47;;;6.60;95.80;;;;;;5058633;28;20083;-75
2024/03/07 08:35:30;;;;;;;130.20;66.35;;;6.60;95.40;;;;;;5052625;28;20094;-75
2024/03/07 08:37:57;;;;;;;125.90;64.97;;;6.70;95.20;;;;;;5058819;28;20036;-75
2024/03/07 08:40:32;;;;;;;123.20;65.03;;;6.80;95.20;;;;;;5057621;28;20032;-75
2024/03/07 08:42:58;;;;;;;121.95;66.45;;;6.90;94.90;;;;;;5058073;28;20806;-75
2024/03/07 08:45:24;;;;;;;118.65;66.20;;;6.90;94.70;;;;;;5060084;28;20041;-75
2024/03/07 08:47:54;;;;;;;117.07;63.72;;;6.90;94.50;;;;;;5054373;28;20380;-75
2024/03/07 08:50:19;;;;;;;113.30;62.92;;;6.60;93.90;;;;;;5057679;28;20040;-75
2024/03/07 08:52:47;;;;;;;114.43;62.42;;;6.50;94.10;;;;;;5056811;28;20032;-75
2024/03/07 08:55:17;;;;;;;116.15;62.03;;;6.50;94.50;;;;;;5051577;28;20028;-75
2024/03/07 08:57:48;;;;;;;113.75;60.85;;;6.60;94.40;;;;;;5054266;28;20065;-75
2024/03/07 09:00:24;;;;;;;122.32;66.75;;;6.60;94.40;;;;;;5054909;28;20100;-75
2024/03/07 09:02:52;;;;;;;117.45;63.55;;;6.60;94.30;;;;;;5056784;28;20059;-76
2024/03/07 09:05:18;;;;;;;112.20;61.83;;;6.70;94.50;;;;;;5052490;28;20325;-75
2024/03/07 09:07:46;;;;;;;114.82;62.30;;;6.70;94.30;;;;;;5057583;28;20037;-75
2024/03/07 09:10:12;;;;;;;112.60;63.13;;;6.80;94.30;;;;;;5054857;28;20036;-75
2024/03/07 09:12:38;;;;;;;112.20;58.95;;;6.70;94.00;;;;;;5058437;28;20036;-74
2024/03/07 09:15:04;;;;;;;103.40;57.10;;;6.90;94.10;;;;;;5054370;28;20021;-74
2024/03/07 09:17:30;;;;;;;102.25;56.70;;;7.10;94.00;;;;;;5051153;28;20393;-75
2024/03/07 09:19:55;;;;;;;98.82;57.58;;;7.20;93.50;;;;;;5054337;28;20045;-75
2024/03/07 09:22:21;;;;;;;110.57;60.55;;;7.10;92.90;;;;;;5053388;28;20029;-74
2024/03/07 09:24:47;;;;;;;111.88;59.70;;;7.10;92.70;;;;;;5051723;28;20109;-74
2024/03/07 09:27:15;;;;;;;107.20;58.70;;;6.90;93.00;;;;;;5050467;28;20055;-74
2024/03/07 09:29:41;;;;;;;103.97;57.65;;;7.00;93.80;;;;;;5052436;28;20051;-74
2024/03/07 09:32:09;;;;;;;108.50;59.55;;;7.30;93.70;;;;;;5052411;28;20094;-74
2024/03/07 09:34:38;;;;;;;97.25;55.55;;;7.60;93.40;;;;;;5051200;28;20025;-75
2024/03/07 09:37:06;;;;;;;94.32;54.38;;;7.60;92.10;;;;;;5058735;28;20278;-75
2024/03/07 09:39:34;;;;;;;90.35;53.35;;;7.90;92.00;;;;;;5052919;28;20332;-74
2024/03/07 09:42:01;;;;;;;93.00;52.78;;;8.40;91.60;;;;;;5057820;28;20035;-74
2024/03/07 09:44:28;;;;;;;93.30;54.30;;;8.60;90.50;;;;;;5049313;28;20136;-74
2024/03/07 09:47:00;;;;;;;90.60;53.13;;;8.90;89.80;;;;;;5053522;28;20124;-74
2024/03/07 09:49:28;;;;;;;95.25;56.47;;;9.30;89.30;;;;;;5054626;28;20021;-74
2024/03/07 09:51:56;;;;;;;96.60;56.47;;;9.10;87.80;;;;;;5052599;28;20029;-74
2024/03/07 09:54:24;;;;;;;94.25;57.78;;;8.50;88.60;;;;;;5051151;28;20130;-75
2024/03/07 09:56:53;;;;;;;103.10;57.40;;;8.10;89.40;;;;;;5052121;28;20033;-76
2024/03/07 09:59:23;;;;;;;102.10;57.28;;;8.10;90.40;;;;;;5051624;28;20765;-76
2024/03/07 10:01:53;;;;;;;98.25;55.00;;;8.10;90.50;;;;;;5047825;28;20517;-76
2024/03/07 10:04:36;;;;;;;91.68;55.35;;;8.20;90.30;;;;;;5052782;28;20028;-75
2024/03/07 10:07:02;;;;;;;98.97;57.05;;;8.40;90.10;;;;;;5056792;28;20336;-75
2024/03/07 10:09:31;;;;;;;94.88;53.75;;;8.70;89.40;;;;;;5046305;28;20040;-75
2024/03/07 10:11:59;;;;;;;98.38;55.15;;;8.70;88.70;;;;;;5052567;28;20412;-74
2024/03/07 10:14:25;;;;;;;103.25;60.20;;;8.70;88.60;;;;;;5052162;28;20413;-74
2024/03/07 10:16:56;;;;;;;98.53;56.75;;;8.20;89.20;;;;;;5040244;28;20044;-74
2024/03/07 10:19:22;;;;;;;97.60;54.85;;;8.50;90.30;;;;;;5048830;28;20021;-74
2024/03/07 10:21:48;;;;;;;101.13;54.88;;;8.80;89.30;;;;;;5059602;28;20090;-74
2024/03/07 10:24:14;;;;;;;96.18;53.17;;;9.00;87.90;;;;;;5049465;28;20024;-74
2024/03/07 10:26:40;;;;;;;99.50;55.95;;;9.10;87.40;;;;;;5052572;28;20043;-74
2024/03/07 10:29:07;;;;;;;92.95;51.60;;;9.20;87.60;;;;;;5047866;28;20354;-75
2024/03/07 10:31:34;;;;;;;87.80;50.35;;;9.10;85.70;;;;;;5049028;28;20071;-74
2024/03/07 10:34:04;;;;;;;87.68;52.92;;;9.20;86.10;;;;;;5053757;28;20028;-75
2024/03/07 10:36:32;;;;;;;91.80;50.90;;;9.30;85.60;;;;;;5056788;28;20036;-74
2024/03/07 10:39:04;;;;;;;85.22;51.35;;;9.10;85.80;;;;;;5057268;28;20029;-75
2024/03/07 10:41:36;;;;;;;80.95;47.95;;;9.40;86.50;;;;;;5057467;28;20046;-75
2024/03/07 10:44:06;;;;;;;86.07;51.67;;;9.40;84.60;;;;;;5050769;28;20044;-74
2024/03/07 10:46:33;;;;;;;87.35;48.90;;;9.10;84.70;;;;;;5051116;28;20040;-73
2024/03/07 10:49:03;;;;;;;77.65;46.60;;;9.10;85.50;;;;;;5054876;28;20028;-74
2024/03/07 10:51:44;;;;;;;79.22;47.20;;;9.60;85.00;;;;;;5055697;28;20079;-74
2024/03/07 10:54:30;;;;;;;74.28;46.60;;;9.90;84.00;;;;;;5057512;28;20020;-73
2024/03/07 10:57:32;;;;;;;76.10;46.90;;;10.20;83.50;;;;;;5057771;28;20540;-73
2024/03/07 11:00:11;;;;;;;74.43;44.25;;;10.40;83.00;;;;;;5055388;28;20381;-73
2024/03/07 11:02:57;;;;;;;71.65;46.28;;;10.90;83.00;;;;;;5050186;28;20239;-74
2024/03/07 11:05:29;;;;;;;75.32;45.63;;;11.10;80.80;;;;;;5044513;28;20035;-74
2024/03/07 11:07:59;;;;;;;74.22;47.03;;;11.00;79.40;;;;;;5049064;28;20060;-74
2024/03/07 11:10:26;;;;;;;72.85;45.88;;;10.90;80.30;;;;;;5054251;28;20465;-73
2024/03/07 11:12:53;;;;;;;72.07;46.45;;;11.00;80.50;;;;;;5050997;28;20325;-74
2024/03/07 11:15:20;;;;;;;74.25;46.17;;;11.20;79.60;;;;;;5049109;28;20044;-72
2024/03/07 11:17:49;;;;;;;74.30;46.72;;;11.40;78.70;;;;;;5051493;28;20021;-75
2024/03/07 11:20:22;;;;;;;68.10;44.22;;;11.40;79.00;;;;;;5053719;28;20041;-76
2024/03/07 11:22:49;;;;;;;67.13;45.33;;;11.50;78.10;;;;;;5058518;28;20029;-75
2024/03/07 11:25:18;;;;;;;65.35;42.58;;;11.50;78.70;;;;;;5056722;28;20098;-75
2024/03/07 11:27:56;;;;;;;69.65;43.47;;;11.50;77.90;;;;;;5051736;28;20032;-75
2024/03/07 11:30:22;;;;;;;64.97;42.65;;;11.60;78.00;;;;;;5049892;28;20517;-75
2024/03/07 11:32:53;;;;;;;62.67;42.17;;;11.80;78.20;;;;;;5054524;28;20029;-75
2024/03/07 11:35:25;;;;;;;65.95;43.28;;;11.90;76.90;;;;;;5053279;28;20077;-74
2024/03/07 11:37:57;;;;;;;62.97;43.03;;;11.60;76.10;;;;;;5053863;28;20056;-75
2024/03/07 11:40:24;;;;;;;60.90;41.28;;;11.70;76.80;;;;;;5057030;28;20062;-74
2024/03/07 11:42:56;;;;;;;56.30;39.97;;;11.90;75.70;;;;;;5053776;28;20059;-75
2024/03/07 11:45:25;;;;;;;59.78;42.63;;;11.80;75.60;;;;;;5056849;28;20549;-75
2024/03/07 11:48:06;;;;;;;63.90;43.03;;;11.80;76.00;;;;;;5051291;28;20028;-73
2024/03/07 11:50:34;;;;;;;59.80;41.83;;;12.10;76.20;;;;;;5052704;28;20082;-74
2024/03/07 11:53:01;;;;;;;57.47;39.97;;;11.90;74.40;;;;;;5056063;28;20643;-74
2024/03/07 11:55:28;;;;;;;59.13;39.88;;;11.90;76.10;;;;;;5056450;28;20039;-74
2024/03/07 11:57:54;;;;;;;57.20;40.28;;;12.30;76.50;;;;;;5054282;28;20016;-74
2024/03/07 12:00:23;;;;;;;55.22;40.25;;;12.50;74.80;;;;;;5047822;28;20102;-74
2024/03/07 12:02:49;;;;;;;54.05;39.58;;;12.60;73.60;;;;;;5053708;28;20202;-74
2024/03/07 12:05:15;;;;;;;55.53;39.03;;;12.80;73.80;;;;;;5055254;28;20508;-74
2024/03/07 12:07:42;;;;;;;51.45;38.03;;;12.80;72.30;;;;;;5051348;28;20075;-74
2024/03/07 12:10:09;;;;;;;56.42;38.78;;;12.60;72.50;;;;;;5052269;28;20049;-74
2024/03/07 12:12:38;;;;;;;52.30;37.20;;;12.40;72.50;;;;;;5052507;28;20021;-74
2024/03/07 12:15:09;;;;;;;51.83;36.85;;;12.60;72.30;;;;;;5049471;28;20162;-75
2024/03/07 12:17:35;;;;;;;52.80;37.90;;;12.70;72.00;;;;;;5057973;28;20103;-75
2024/03/07 12:20:24;;;;;;;52.75;36.97;;;12.60;70.60;;;;;;5046746;28;20049;-74
2024/03/07 12:22:48;;;;;;;52.40;37.63;;;12.40;72.50;;;;;;5057733;28;20036;-73
2024/03/07 12:25:21;;;;;;;50.80;36.90;;;12.30;72.70;;;;;;5059924;28;20036;-74
2024/03/07 12:27:48;;;;;;;52.72;39.08;;;12.60;73.00;;;;;;5055785;28;20029;-74
2024/03/07 12:30:19;;;;;;;53.22;38.65;;;12.80;72.50;;;;;;5049971;28;20059;-74
2024/03/07 12:32:49;;;;;;;50.60;37.72;;;13.10;72.20;;;;;;5059926;28;20024;-74
2024/03/07 12:35:15;;;;;;;51.42;37.20;;;13.00;70.70;;;;;;5054521;28;20082;-74